sensor_id;sensor_type;location;lat;lon;timestamp;temperature;humidity
2300;DHT22;1158;48.750;9.078;2024-03-02T00:00:26;4.40;99.90
2300;DHT22;1158;48.750;9.078;2024-03-02T00:02:53;4.40;99.90
2300;DHT22;1158;48.750;9.078;2024-03-02T00:05:21;4.50;99.90
2300;DHT22;1158;48.750;9.078;2024-03-02T00:07:53;4.60;99.90
2300;DHT22;1158;48.750;9.078;2024-03-02T00:10:24;4.80;99.90
2300;DHT22;1158;48.750;9.078;2024-03-02T00:12:54;4.80;99.90
2300;DHT22;1158;48.750;9.078;2024-03-02T00:15:40;4.70;99.90
2300;DHT22;1158;48.750;9.078;2024-03-02T00:18:08;4.70;99.90
2300;DHT22;1158;48.750;9.078;2024-03-02T00:20:36;4.80;99.90
2300;DHT22;1158;48.750;9.078;2024-03-02T00:23:04;4.90;99.90
2300;DHT22;1158;48.750;9.078;2024-03-02T00:25:38;4.90;99.90
2300;DHT22;1158;48.750;9.078;2024-03-02T00:28:14;5.00;99.90
2300;DHT22;1158;48.750;9.078;2024-03-02T00:30:59;5.10;99.90
2300;DHT22;1158;48.750;9.078;2024-03-02T00:33:30;5.20;99.90
2300;DHT22;1158;48.750;9.078;2024-03-02T00:35:58;5.20;99.90
2300;DHT22;1158;48.750;9.078;2024-03-02T00:38:25;5.20;99.90
2300;DHT22;1158;48.750;9.078;2024-03-02T00:40:54;5.30;99.90
2300;DHT22;1158;48.750;9.078;2024-03-02T00:43:43;5.30;99.90
2300;DHT22;1158;48.750;9.078;2024-03-02T00:46:15;5.30;99.90
2300;DHT22;1158;48.750;9.078;2024-03-02T00:48:50;5.30;99.90
2300;DHT22;1158;48.750;9.078;2024-03-02T00:51:18;5.30;99.90
2300;DHT22;1158;48.750;9.078;2024-03-02T00:53:45;5.30;99.90
2300;DHT22;1158;48.750;9.078;2024-03-02T00:56:13;5.30;99.90
2300;DHT22;1158;48.750;9.078;2024-03-02T00:58:40;5.20;99.90
2300;DHT22;1158;48.750;9.078;2024-03-02T01:01:07;5.20;99.90
2300;DHT22;1158;48.750;9.078;2024-03-02T01:03:33;5.10;99.90
2300;DHT22;1158;48.750;9.078;2024-03-02T01:06:00;5.10;99.90
2300;DHT22;1158;48.750;9.078;2024-03-02T01:08:27;5.20;99.90
2300;DHT22;1158;48.750;9.078;2024-03-02T01:10:54;5.20;99.90
2300;DHT22;1158;48.750;9.078;2024-03-02T01:13:23;5.30;99.90
2300;DHT22;1158;48.750;9.078;2024-03-02T01:15:49;5.30;99.90
2300;DHT22;1158;48.750;9.078;2024-03-02T01:18:16;5.30;99.90
2300;DHT22;1158;48.750;9.078;2024-03-02T01:20:43;5.30;99.90
2300;DHT22;1158;48.750;9.078;2024-03-02T01:23:10;5.30;99.90
2300;DHT22;1158;48.750;9.078;2024-03-02T01:25:36;5.30;99.90
2300;DHT22;1158;48.750;9.078;2024-03-02T01:28:04;5.30;99.90
2300;DHT22;1158;48.750;9.078;2024-03-02T01:30:32;5.20;99.90
2300;DHT22;1158;48.750;9.078;2024-03-02T01:32:59;5.20;99.90
2300;DHT22;1158;48.750;9.078;2024-03-02T01:35:27;5.20;99.90
2300;DHT22;1158;48.750;9.078;2024-03-02T01:37:54;5.20;99.90
2300;DHT22;1158;48.750;9.078;2024-03-02T01:40:21;5.20;99.90
2300;DHT22;1158;48.750;9.078;2024-03-02T01:42:49;5.20;99.90
2300;DHT22;1158;48.750;9.078;2024-03-02T01:45:15;5.10;99.90
2300;DHT22;1158;48.750;9.078;2024-03-02T01:47:43;5.00;99.90
2300;DHT22;1158;48.750;9.078;2024-03-02T01:50:11;5.10;99.90
2300;DHT22;1158;48.750;9.078;2024-03-02T01:52:39;5.00;99.90
2300;DHT22;1158;48.750;9.078;2024-03-02T01:55:06;5.00;99.90
2300;DHT22;1158;48.750;9.078;2024-03-02T01:57:34;5.00;99.90
2300;DHT22;1158;48.750;9.078;2024-03-02T02:00:01;5.00;99.90
2300;DHT22;1158;48.750;9.078;2024-03-02T02:02:28;5.00;99.90
2300;DHT22;1158;48.750;9.078;2024-03-02T02:04:57;5.10;99.90
2300;DHT22;1158;48.750;9.078;2024-03-02T02:07:23;5.00;99.90
2300;DHT22;1158;48.750;9.078;2024-03-02T02:09:50;4.90;99.90
2300;DHT22;1158;48.750;9.078;2024-03-02T02:12:17;4.80;99.90
2300;DHT22;1158;48.750;9.078;2024-03-02T02:14:47;4.70;99.90
2300;DHT22;1158;48.750;9.078;2024-03-02T02:17:15;4.80;99.90
2300;DHT22;1158;48.750;9.078;2024-03-02T02:19:40;4.90;99.90
2300;DHT22;1158;48.750;9.078;2024-03-02T02:22:09;4.90;99.90
2300;DHT22;1158;48.750;9.078;2024-03-02T02:24:36;4.80;99.90
2300;DHT22;1158;48.750;9.078;2024-03-02T02:27:05;4.80;99.90
2300;DHT22;1158;48.750;9.078;2024-03-02T02:29:32;4.80;99.90
2300;DHT22;1158;48.750;9.078;2024-03-02T02:31:59;4.80;99.90
2300;DHT22;1158;48.750;9.078;2024-03-02T02:34:25;4.90;99.90
2300;DHT22;1158;48.750;9.078;2024-03-02T02:36:52;4.80;99.90
2300;DHT22;1158;48.750;9.078;2024-03-02T02:39:22;4.90;99.90
2300;DHT22;1158;48.750;9.078;2024-03-02T02:41:49;4.80;99.90
2300;DHT22;1158;48.750;9.078;2024-03-02T02:44:15;4.70;99.90
2300;DHT22;1158;48.750;9.078;2024-03-02T02:46:42;4.60;99.90
2300;DHT22;1158;48.750;9.078;2024-03-02T02:49:09;4.70;99.90
2300;DHT22;1158;48.750;9.078;2024-03-02T02:51:35;4.70;99.90
2300;DHT22;1158;48.750;9.078;2024-03-02T02:54:02;4.70;99.90
2300;DHT22;1158;48.750;9.078;2024-03-02T02:56:30;4.50;99.90
2300;DHT22;1158;48.750;9.078;2024-03-02T02:58:57;4.50;99.90
2300;DHT22;1158;48.750;9.078;2024-03-02T03:01:24;4.40;99.90
2300;DHT22;1158;48.750;9.078;2024-03-02T03:03:51;4.30;99.90
2300;DHT22;1158;48.750;9.078;2024-03-02T03:06:17;4.30;99.90
2300;DHT22;1158;48.750;9.078;2024-03-02T03:08:44;4.40;99.90
2300;DHT22;1158;48.750;9.078;2024-03-02T03:11:11;4.40;99.90
2300;DHT22;1158;48.750;9.078;2024-03-02T03:13:39;4.40;99.90
2300;DHT22;1158;48.750;9.078;2024-03-02T03:16:06;4.40;99.90
2300;DHT22;1158;48.750;9.078;2024-03-02T03:18:32;4.30;99.90
2300;DHT22;1158;48.750;9.078;2024-03-02T03:20:59;4.20;99.90
2300;DHT22;1158;48.750;9.078;2024-03-02T03:23:26;4.20;99.90
2300;DHT22;1158;48.750;9.078;2024-03-02T03:25:52;4.20;99.90
2300;DHT22;1158;48.750;9.078;2024-03-02T03:28:19;4.20;99.90
2300;DHT22;1158;48.750;9.078;2024-03-02T03:30:47;4.20;99.90
2300;DHT22;1158;48.750;9.078;2024-03-02T03:33:14;4.30;99.90
2300;DHT22;1158;48.750;9.078;2024-03-02T03:35:40;4.30;99.90
2300;DHT22;1158;48.750;9.078;2024-03-02T03:38:07;4.20;99.90
2300;DHT22;1158;48.750;9.078;2024-03-02T03:40:34;4.30;99.90
2300;DHT22;1158;48.750;9.078;2024-03-02T03:43:00;4.30;99.90
2300;DHT22;1158;48.750;9.078;2024-03-02T03:45:27;4.30;99.90
2300;DHT22;1158;48.750;9.078;2024-03-02T03:47:57;4.20;99.90
2300;DHT22;1158;48.750;9.078;2024-03-02T03:50:24;4.10;99.90
2300;DHT22;1158;48.750;9.078;2024-03-02T03:52:50;4.10;99.90
2300;DHT22;1158;48.750;9.078;2024-03-02T03:55:17;4.10;99.90
2300;DHT22;1158;48.750;9.078;2024-03-02T03:57:44;4.10;99.90
2300;DHT22;1158;48.750;9.078;2024-03-02T04:00:20;4.10;99.90
2300;DHT22;1158;48.750;9.078;2024-03-02T04:02:47;4.20;99.90
2300;DHT22;1158;48.750;9.078;2024-03-02T04:05:14;4.20;99.90
2300;DHT22;1158;48.750;9.078;2024-03-02T04:07:41;4.20;99.90
2300;DHT22;1158;48.750;9.078;2024-03-02T04:10:09;4.10;99.90
2300;DHT22;1158;48.750;9.078;2024-03-02T04:12:36;4.10;99.90
2300;DHT22;1158;48.750;9.078;2024-03-02T04:15:04;4.00;99.90
2300;DHT22;1158;48.750;9.078;2024-03-02T04:17:33;3.80;99.90
2300;DHT22;1158;48.750;9.078;2024-03-02T04:20:01;3.70;99.90
2300;DHT22;1158;48.750;9.078;2024-03-02T04:22:30;3.50;99.90
2300;DHT22;1158;48.750;9.078;2024-03-02T04:24:56;3.30;99.90
2300;DHT22;1158;48.750;9.078;2024-03-02T04:27:23;3.10;99.90
2300;DHT22;1158;48.750;9.078;2024-03-02T04:29:50;2.90;99.90
2300;DHT22;1158;48.750;9.078;2024-03-02T04:32:17;2.80;99.90
2300;DHT22;1158;48.750;9.078;2024-03-02T04:34:46;2.70;99.90
2300;DHT22;1158;48.750;9.078;2024-03-02T04:37:13;2.60;99.90
2300;DHT22;1158;48.750;9.078;2024-03-02T04:39:40;2.50;99.90
2300;DHT22;1158;48.750;9.078;2024-03-02T04:42:06;2.60;99.90
2300;DHT22;1158;48.750;9.078;2024-03-02T04:44:33;2.50;99.90
2300;DHT22;1158;48.750;9.078;2024-03-02T04:47:00;2.40;99.90
2300;DHT22;1158;48.750;9.078;2024-03-02T04:49:27;2.40;99.90
2300;DHT22;1158;48.750;9.078;2024-03-02T04:51:55;2.30;99.90
2300;DHT22;1158;48.750;9.078;2024-03-02T04:54:22;2.20;99.90
2300;DHT22;1158;48.750;9.078;2024-03-02T04:56:49;2.10;99.90
2300;DHT22;1158;48.750;9.078;2024-03-02T04:59:16;2.00;99.90
2300;DHT22;1158;48.750;9.078;2024-03-02T05:01:42;2.10;99.90
2300;DHT22;1158;48.750;9.078;2024-03-02T05:04:09;2.00;99.90
2300;DHT22;1158;48.750;9.078;2024-03-02T05:06:37;2.20;99.90
2300;DHT22;1158;48.750;9.078;2024-03-02T05:09:06;2.10;99.90
2300;DHT22;1158;48.750;9.078;2024-03-02T05:11:32;2.10;99.90
2300;DHT22;1158;48.750;9.078;2024-03-02T05:14:21;2.00;99.90
2300;DHT22;1158;48.750;9.078;2024-03-02T05:16:48;2.00;99.90
2300;DHT22;1158;48.750;9.078;2024-03-02T05:19:15;1.90;99.90
2300;DHT22;1158;48.750;9.078;2024-03-02T05:21:42;1.80;99.90
2300;DHT22;1158;48.750;9.078;2024-03-02T05:24:10;1.80;99.90
2300;DHT22;1158;48.750;9.078;2024-03-02T05:26:37;1.80;99.90
2300;DHT22;1158;48.750;9.078;2024-03-02T05:29:04;1.80;99.90
2300;DHT22;1158;48.750;9.078;2024-03-02T05:31:30;1.70;99.90
2300;DHT22;1158;48.750;9.078;2024-03-02T05:33:57;1.60;99.90
2300;DHT22;1158;48.750;9.078;2024-03-02T05:36:24;1.60;99.90
2300;DHT22;1158;48.750;9.078;2024-03-02T05:38:51;1.50;99.90
2300;DHT22;1158;48.750;9.078;2024-03-02T05:41:19;1.40;99.90
2300;DHT22;1158;48.750;9.078;2024-03-02T05:43:46;1.30;99.90
2300;DHT22;1158;48.750;9.078;2024-03-02T05:46:13;1.20;99.90
2300;DHT22;1158;48.750;9.078;2024-03-02T05:48:39;1.20;99.90
2300;DHT22;1158;48.750;9.078;2024-03-02T05:51:06;1.20;99.90
2300;DHT22;1158;48.750;9.078;2024-03-02T05:53:33;1.10;99.90
2300;DHT22;1158;48.750;9.078;2024-03-02T05:56:00;1.10;99.90
2300;DHT22;1158;48.750;9.078;2024-03-02T05:58:28;1.10;99.90
2300;DHT22;1158;48.750;9.078;2024-03-02T06:01:08;1.50;99.90
2300;DHT22;1158;48.750;9.078;2024-03-02T06:03:35;1.80;99.90
2300;DHT22;1158;48.750;9.078;2024-03-02T06:06:02;2.10;99.90
2300;DHT22;1158;48.750;9.078;2024-03-02T06:08:29;2.10;99.90
2300;DHT22;1158;48.750;9.078;2024-03-02T06:10:55;2.10;99.90
2300;DHT22;1158;48.750;9.078;2024-03-02T06:13:22;2.10;99.90
2300;DHT22;1158;48.750;9.078;2024-03-02T06:15:52;2.10;99.90
2300;DHT22;1158;48.750;9.078;2024-03-02T06:18:19;2.10;99.90
2300;DHT22;1158;48.750;9.078;2024-03-02T06:20:46;2.10;99.90
2300;DHT22;1158;48.750;9.078;2024-03-02T06:23:12;2.20;99.90
2300;DHT22;1158;48.750;9.078;2024-03-02T06:25:39;2.20;99.90
2300;DHT22;1158;48.750;9.078;2024-03-02T06:28:06;2.30;99.90
2300;DHT22;1158;48.750;9.078;2024-03-02T06:30:32;2.30;99.90
2300;DHT22;1158;48.750;9.078;2024-03-02T06:33:01;2.40;99.90
2300;DHT22;1158;48.750;9.078;2024-03-02T06:35:29;2.60;99.90
2300;DHT22;1158;48.750;9.078;2024-03-02T06:37:55;2.80;99.90
2300;DHT22;1158;48.750;9.078;2024-03-02T06:40:22;3.00;99.90
2300;DHT22;1158;48.750;9.078;2024-03-02T06:42:49;3.20;99.90
2300;DHT22;1158;48.750;9.078;2024-03-02T06:45:16;3.30;99.90
2300;DHT22;1158;48.750;9.078;2024-03-02T06:47:43;3.50;99.90
2300;DHT22;1158;48.750;9.078;2024-03-02T06:50:11;3.60;99.90
2300;DHT22;1158;48.750;9.078;2024-03-02T06:52:38;3.70;99.90
2300;DHT22;1158;48.750;9.078;2024-03-02T06:55:06;3.80;99.90
2300;DHT22;1158;48.750;9.078;2024-03-02T06:57:32;3.80;99.90
2300;DHT22;1158;48.750;9.078;2024-03-02T06:59:59;3.90;99.90
2300;DHT22;1158;48.750;9.078;2024-03-02T07:02:26;4.00;99.90
2300;DHT22;1158;48.750;9.078;2024-03-02T07:04:53;4.20;99.90
2300;DHT22;1158;48.750;9.078;2024-03-02T07:07:21;4.50;99.90
2300;DHT22;1158;48.750;9.078;2024-03-02T07:09:48;4.90;99.90
2300;DHT22;1158;48.750;9.078;2024-03-02T07:12:15;5.40;99.90
2300;DHT22;1158;48.750;9.078;2024-03-02T07:14:41;5.90;99.90
2300;DHT22;1158;48.750;9.078;2024-03-02T07:17:36;6.50;99.90
2300;DHT22;1158;48.750;9.078;2024-03-02T07:20:04;6.80;99.90
2300;DHT22;1158;48.750;9.078;2024-03-02T07:22:33;7.20;99.90
2300;DHT22;1158;48.750;9.078;2024-03-02T07:25:00;8.10;99.90
2300;DHT22;1158;48.750;9.078;2024-03-02T07:27:26;8.50;99.90
2300;DHT22;1158;48.750;9.078;2024-03-02T07:29:53;8.20;99.90
2300;DHT22;1158;48.750;9.078;2024-03-02T07:32:21;7.90;99.90
2300;DHT22;1158;48.750;9.078;2024-03-02T07:34:47;7.30;99.90
2300;DHT22;1158;48.750;9.078;2024-03-02T07:37:16;7.00;99.90
2300;DHT22;1158;48.750;9.078;2024-03-02T07:39:45;7.00;99.90
2300;DHT22;1158;48.750;9.078;2024-03-02T07:42:12;7.00;99.90
2300;DHT22;1158;48.750;9.078;2024-03-02T07:44:39;6.90;99.90
2300;DHT22;1158;48.750;9.078;2024-03-02T07:47:06;6.90;99.90
2300;DHT22;1158;48.750;9.078;2024-03-02T07:49:33;6.90;99.90
2300;DHT22;1158;48.750;9.078;2024-03-02T07:52:00;6.80;99.90
2300;DHT22;1158;48.750;9.078;2024-03-02T07:54:27;6.60;99.90
2300;DHT22;1158;48.750;9.078;2024-03-02T07:56:55;6.60;99.90
2300;DHT22;1158;48.750;9.078;2024-03-02T07:59:21;6.80;99.90
2300;DHT22;1158;48.750;9.078;2024-03-02T08:01:49;7.10;99.90
2300;DHT22;1158;48.750;9.078;2024-03-02T08:04:16;7.10;99.90
2300;DHT22;1158;48.750;9.078;2024-03-02T08:06:42;7.50;99.90
2300;DHT22;1158;48.750;9.078;2024-03-02T08:09:09;8.00;99.90
2300;DHT22;1158;48.750;9.078;2024-03-02T08:11:36;8.70;99.90
2300;DHT22;1158;48.750;9.078;2024-03-02T08:14:05;9.20;99.90
2300;DHT22;1158;48.750;9.078;2024-03-02T08:16:32;9.80;99.90
2300;DHT22;1158;48.750;9.078;2024-03-02T08:18:59;10.60;99.90
2300;DHT22;1158;48.750;9.078;2024-03-02T08:21:26;11.50;99.90
2300;DHT22;1158;48.750;9.078;2024-03-02T08:23:56;11.70;99.90
2300;DHT22;1158;48.750;9.078;2024-03-02T08:26:23;11.70;99.90
2300;DHT22;1158;48.750;9.078;2024-03-02T08:28:49;12.20;99.90
2300;DHT22;1158;48.750;9.078;2024-03-02T08:31:18;12.90;99.90
2300;DHT22;1158;48.750;9.078;2024-03-02T08:33:44;13.50;99.60
2300;DHT22;1158;48.750;9.078;2024-03-02T08:36:11;12.90;99.40
2300;DHT22;1158;48.750;9.078;2024-03-02T08:38:38;12.60;99.30
2300;DHT22;1158;48.750;9.078;2024-03-02T08:41:05;13.40;99.40
2300;DHT22;1158;48.750;9.078;2024-03-02T08:43:33;14.60;97.30
2300;DHT22;1158;48.750;9.078;2024-03-02T08:46:00;15.20;95.10
2300;DHT22;1158;48.750;9.078;2024-03-02T08:48:28;15.40;95.00
2300;DHT22;1158;48.750;9.078;2024-03-02T08:50:55;15.70;94.90
2300;DHT22;1158;48.750;9.078;2024-03-02T08:53:22;16.50;93.90
2300;DHT22;1158;48.750;9.078;2024-03-02T08:55:49;16.80;92.70
2300;DHT22;1158;48.750;9.078;2024-03-02T08:58:15;17.00;92.00
2300;DHT22;1158;48.750;9.078;2024-03-02T09:00:42;17.60;90.80
2300;DHT22;1158;48.750;9.078;2024-03-02T09:03:09;17.50;90.90
2300;DHT22;1158;48.750;9.078;2024-03-02T09:05:37;16.80;90.90
2300;DHT22;1158;48.750;9.078;2024-03-02T09:08:04;17.40;90.80
2300;DHT22;1158;48.750;9.078;2024-03-02T09:10:31;18.20;87.90
2300;DHT22;1158;48.750;9.078;2024-03-02T09:12:58;17.70;89.10
2300;DHT22;1158;48.750;9.078;2024-03-02T09:15:25;17.40;88.90
2300;DHT22;1158;48.750;9.078;2024-03-02T09:17:52;17.50;87.50
2300;DHT22;1158;48.750;9.078;2024-03-02T09:20:19;17.70;87.60
2300;DHT22;1158;48.750;9.078;2024-03-02T09:22:47;17.40;87.30
2300;DHT22;1158;48.750;9.078;2024-03-02T09:25:14;17.80;87.10
2300;DHT22;1158;48.750;9.078;2024-03-02T09:27:41;18.30;86.90
2300;DHT22;1158;48.750;9.078;2024-03-02T09:30:09;19.10;86.20
2300;DHT22;1158;48.750;9.078;2024-03-02T09:32:36;18.80;85.00
2300;DHT22;1158;48.750;9.078;2024-03-02T09:35:04;19.00;85.30
2300;DHT22;1158;48.750;9.078;2024-03-02T09:37:31;19.50;84.90
2300;DHT22;1158;48.750;9.078;2024-03-02T09:39:59;19.30;83.40
2300;DHT22;1158;48.750;9.078;2024-03-02T09:42:26;19.10;84.10
2300;DHT22;1158;48.750;9.078;2024-03-02T09:44:53;19.10;84.00
2300;DHT22;1158;48.750;9.078;2024-03-02T09:47:20;18.50;83.60
2300;DHT22;1158;48.750;9.078;2024-03-02T09:49:48;16.50;86.40
2300;DHT22;1158;48.750;9.078;2024-03-02T09:52:15;17.40;87.10
2300;DHT22;1158;48.750;9.078;2024-03-02T09:54:42;16.90;85.10
2300;DHT22;1158;48.750;9.078;2024-03-02T09:57:10;17.40;84.20
2300;DHT22;1158;48.750;9.078;2024-03-02T09:59:37;16.80;85.50
2300;DHT22;1158;48.750;9.078;2024-03-02T10:02:04;16.90;85.80
2300;DHT22;1158;48.750;9.078;2024-03-02T10:04:33;17.30;83.90
2300;DHT22;1158;48.750;9.078;2024-03-02T10:07:14;16.50;85.00
2300;DHT22;1158;48.750;9.078;2024-03-02T10:09:41;17.40;85.00
2300;DHT22;1158;48.750;9.078;2024-03-02T10:12:11;18.80;82.10
2300;DHT22;1158;48.750;9.078;2024-03-02T10:14:38;18.60;81.70
2300;DHT22;1158;48.750;9.078;2024-03-02T10:17:07;18.40;83.90
2300;DHT22;1158;48.750;9.078;2024-03-02T10:19:34;19.30;80.20
2300;DHT22;1158;48.750;9.078;2024-03-02T10:22:03;19.40;81.20
2300;DHT22;1158;48.750;9.078;2024-03-02T10:24:35;19.40;81.90
2300;DHT22;1158;48.750;9.078;2024-03-02T10:27:07;19.70;78.30
2300;DHT22;1158;48.750;9.078;2024-03-02T10:29:38;19.40;80.20
2300;DHT22;1158;48.750;9.078;2024-03-02T10:32:08;18.80;81.00
2300;DHT22;1158;48.750;9.078;2024-03-02T10:34:36;18.70;80.50
2300;DHT22;1158;48.750;9.078;2024-03-02T10:37:04;17.90;80.70
2300;DHT22;1158;48.750;9.078;2024-03-02T10:39:31;18.20;82.70
2300;DHT22;1158;48.750;9.078;2024-03-02T10:42:02;18.20;80.80
2300;DHT22;1158;48.750;9.078;2024-03-02T10:44:30;18.20;79.40
2300;DHT22;1158;48.750;9.078;2024-03-02T10:46:59;17.60;79.60
2300;DHT22;1158;48.750;9.078;2024-03-02T10:49:27;17.50;82.50
2300;DHT22;1158;48.750;9.078;2024-03-02T10:51:55;17.50;82.50
2300;DHT22;1158;48.750;9.078;2024-03-02T10:54:22;17.50;83.40
2300;DHT22;1158;48.750;9.078;2024-03-02T10:56:53;17.50;83.00
2300;DHT22;1158;48.750;9.078;2024-03-02T10:59:24;17.90;83.60
2300;DHT22;1158;48.750;9.078;2024-03-02T11:01:55;18.20;82.30
2300;DHT22;1158;48.750;9.078;2024-03-02T11:04:25;18.60;81.10
2300;DHT22;1158;48.750;9.078;2024-03-02T11:06:56;18.60;80.90
2300;DHT22;1158;48.750;9.078;2024-03-02T11:09:26;18.30;80.50
2300;DHT22;1158;48.750;9.078;2024-03-02T11:12:00;18.40;81.80
2300;DHT22;1158;48.750;9.078;2024-03-02T11:14:30;18.10;81.70
2300;DHT22;1158;48.750;9.078;2024-03-02T11:16:57;17.70;81.50
2300;DHT22;1158;48.750;9.078;2024-03-02T11:19:26;18.10;81.40
2300;DHT22;1158;48.750;9.078;2024-03-02T11:21:54;17.60;82.60
2300;DHT22;1158;48.750;9.078;2024-03-02T11:24:33;17.90;83.10
2300;DHT22;1158;48.750;9.078;2024-03-02T11:27:01;18.20;82.70
2300;DHT22;1158;48.750;9.078;2024-03-02T11:29:43;17.60;83.30
2300;DHT22;1158;48.750;9.078;2024-03-02T11:32:15;18.40;82.80
2300;DHT22;1158;48.750;9.078;2024-03-02T11:34:45;18.80;82.30
2300;DHT22;1158;48.750;9.078;2024-03-02T11:37:13;18.50;82.30
2300;DHT22;1158;48.750;9.078;2024-03-02T11:39:40;18.90;82.20
2300;DHT22;1158;48.750;9.078;2024-03-02T11:42:07;18.60;81.10
2300;DHT22;1158;48.750;9.078;2024-03-02T11:44:36;18.50;81.80
2300;DHT22;1158;48.750;9.078;2024-03-02T11:47:06;18.50;81.80
2300;DHT22;1158;48.750;9.078;2024-03-02T11:49:44;17.90;82.60
2300;DHT22;1158;48.750;9.078;2024-03-02T11:52:12;17.80;82.10
2300;DHT22;1158;48.750;9.078;2024-03-02T11:54:41;17.60;82.10
2300;DHT22;1158;48.750;9.078;2024-03-02T11:57:13;17.70;82.60
2300;DHT22;1158;48.750;9.078;2024-03-02T11:59:40;17.70;82.90
2300;DHT22;1158;48.750;9.078;2024-03-02T12:02:14;17.80;81.40
2300;DHT22;1158;48.750;9.078;2024-03-02T12:04:42;18.00;81.10
2300;DHT22;1158;48.750;9.078;2024-03-02T12:07:10;17.80;81.70
2300;DHT22;1158;48.750;9.078;2024-03-02T12:09:37;18.20;82.10
2300;DHT22;1158;48.750;9.078;2024-03-02T12:12:05;17.80;80.90
2300;DHT22;1158;48.750;9.078;2024-03-02T12:14:32;17.70;81.90
2300;DHT22;1158;48.750;9.078;2024-03-02T12:17:00;17.90;82.90
2300;DHT22;1158;48.750;9.078;2024-03-02T12:19:27;17.90;82.60
2300;DHT22;1158;48.750;9.078;2024-03-02T12:21:57;18.40;81.80
2300;DHT22;1158;48.750;9.078;2024-03-02T12:24:27;18.80;81.70
2300;DHT22;1158;48.750;9.078;2024-03-02T12:26:54;18.90;80.00
2300;DHT22;1158;48.750;9.078;2024-03-02T12:29:21;17.90;81.80
2300;DHT22;1158;48.750;9.078;2024-03-02T12:31:50;18.20;82.60
2300;DHT22;1158;48.750;9.078;2024-03-02T12:34:18;18.20;81.90
2300;DHT22;1158;48.750;9.078;2024-03-02T12:36:45;18.50;83.70
2300;DHT22;1158;48.750;9.078;2024-03-02T12:39:16;18.80;79.20
2300;DHT22;1158;48.750;9.078;2024-03-02T12:41:43;18.10;80.10
2300;DHT22;1158;48.750;9.078;2024-03-02T12:44:10;17.60;82.00
2300;DHT22;1158;48.750;9.078;2024-03-02T12:46:37;17.70;83.10
2300;DHT22;1158;48.750;9.078;2024-03-02T12:49:08;18.20;82.60
2300;DHT22;1158;48.750;9.078;2024-03-02T12:51:36;18.20;82.70
2300;DHT22;1158;48.750;9.078;2024-03-02T12:54:03;18.80;81.80
2300;DHT22;1158;48.750;9.078;2024-03-02T12:56:32;19.30;80.70
2300;DHT22;1158;48.750;9.078;2024-03-02T12:58:59;19.60;77.80
2300;DHT22;1158;48.750;9.078;2024-03-02T13:01:26;20.00;77.80
2300;DHT22;1158;48.750;9.078;2024-03-02T13:03:53;20.30;76.70
2300;DHT22;1158;48.750;9.078;2024-03-02T13:06:21;19.90;74.60
2300;DHT22;1158;48.750;9.078;2024-03-02T13:08:49;19.30;75.60
2300;DHT22;1158;48.750;9.078;2024-03-02T13:11:16;19.70;78.90
2300;DHT22;1158;48.750;9.078;2024-03-02T13:13:44;20.30;77.60
2300;DHT22;1158;48.750;9.078;2024-03-02T13:16:12;20.10;78.40
2300;DHT22;1158;48.750;9.078;2024-03-02T13:18:39;20.20;77.90
2300;DHT22;1158;48.750;9.078;2024-03-02T13:21:07;19.70;78.50
2300;DHT22;1158;48.750;9.078;2024-03-02T13:23:34;19.00;79.40
2300;DHT22;1158;48.750;9.078;2024-03-02T13:26:01;18.20;80.10
2300;DHT22;1158;48.750;9.078;2024-03-02T13:28:28;17.70;80.90
2300;DHT22;1158;48.750;9.078;2024-03-02T13:30:56;18.00;81.90
2300;DHT22;1158;48.750;9.078;2024-03-02T13:33:23;18.60;80.60
2300;DHT22;1158;48.750;9.078;2024-03-02T13:35:50;19.40;78.40
2300;DHT22;1158;48.750;9.078;2024-03-02T13:38:18;20.00;79.80
2300;DHT22;1158;48.750;9.078;2024-03-02T13:40:45;20.60;77.10
2300;DHT22;1158;48.750;9.078;2024-03-02T13:43:12;20.70;75.80
2300;DHT22;1158;48.750;9.078;2024-03-02T13:45:39;20.80;74.70
2300;DHT22;1158;48.750;9.078;2024-03-02T13:48:07;20.30;76.50
2300;DHT22;1158;48.750;9.078;2024-03-02T13:50:35;20.20;76.00
2300;DHT22;1158;48.750;9.078;2024-03-02T13:53:01;19.30;78.10
2300;DHT22;1158;48.750;9.078;2024-03-02T13:55:29;18.40;78.60
2300;DHT22;1158;48.750;9.078;2024-03-02T13:57:57;17.90;79.40
2300;DHT22;1158;48.750;9.078;2024-03-02T14:00:23;17.50;81.40
2300;DHT22;1158;48.750;9.078;2024-03-02T14:02:50;17.10;81.50
2300;DHT22;1158;48.750;9.078;2024-03-02T14:05:18;16.90;81.60
2300;DHT22;1158;48.750;9.078;2024-03-02T14:07:45;17.20;81.80
2300;DHT22;1158;48.750;9.078;2024-03-02T14:10:12;18.00;81.40
2300;DHT22;1158;48.750;9.078;2024-03-02T14:12:41;18.20;80.20
2300;DHT22;1158;48.750;9.078;2024-03-02T14:15:08;18.10;79.30
2300;DHT22;1158;48.750;9.078;2024-03-02T14:17:35;18.10;79.80
2300;DHT22;1158;48.750;9.078;2024-03-02T14:20:01;18.40;79.50
2300;DHT22;1158;48.750;9.078;2024-03-02T14:22:32;18.80;78.30
2300;DHT22;1158;48.750;9.078;2024-03-02T14:24:59;19.00;78.30
2300;DHT22;1158;48.750;9.078;2024-03-02T14:27:26;19.30;78.20
2300;DHT22;1158;48.750;9.078;2024-03-02T14:29:53;20.00;76.90
2300;DHT22;1158;48.750;9.078;2024-03-02T14:32:19;20.10;75.00
2300;DHT22;1158;48.750;9.078;2024-03-02T14:34:46;20.60;74.40
2300;DHT22;1158;48.750;9.078;2024-03-02T14:37:14;21.80;74.50
2300;DHT22;1158;48.750;9.078;2024-03-02T14:39:42;22.40;72.10
2300;DHT22;1158;48.750;9.078;2024-03-02T14:42:09;22.30;71.20
2300;DHT22;1158;48.750;9.078;2024-03-02T14:44:36;23.00;71.80
2300;DHT22;1158;48.750;9.078;2024-03-02T14:47:03;23.60;68.50
2300;DHT22;1158;48.750;9.078;2024-03-02T14:49:30;23.10;67.90
2300;DHT22;1158;48.750;9.078;2024-03-02T14:51:59;23.00;68.20
2300;DHT22;1158;48.750;9.078;2024-03-02T14:54:25;23.10;67.90
2300;DHT22;1158;48.750;9.078;2024-03-02T14:56:54;23.20;67.90
2300;DHT22;1158;48.750;9.078;2024-03-02T14:59:22;22.80;68.30
2300;DHT22;1158;48.750;9.078;2024-03-02T15:01:49;22.70;67.90
2300;DHT22;1158;48.750;9.078;2024-03-02T15:04:15;23.00;68.40
2300;DHT22;1158;48.750;9.078;2024-03-02T15:06:44;23.20;66.70
2300;DHT22;1158;48.750;9.078;2024-03-02T15:09:11;22.90;67.90
2300;DHT22;1158;48.750;9.078;2024-03-02T15:11:38;23.10;67.80
2300;DHT22;1158;48.750;9.078;2024-03-02T15:14:06;22.90;66.50
2300;DHT22;1158;48.750;9.078;2024-03-02T15:16:33;21.90;67.40
2300;DHT22;1158;48.750;9.078;2024-03-02T15:19:00;21.10;67.40
2300;DHT22;1158;48.750;9.078;2024-03-02T15:21:28;19.80;69.00
2300;DHT22;1158;48.750;9.078;2024-03-02T15:23:54;19.30;70.90
2300;DHT22;1158;48.750;9.078;2024-03-02T15:26:21;19.40;71.70
2300;DHT22;1158;48.750;9.078;2024-03-02T15:28:48;19.30;70.60
2300;DHT22;1158;48.750;9.078;2024-03-02T15:31:16;18.60;72.20
2300;DHT22;1158;48.750;9.078;2024-03-02T15:33:43;17.70;73.30
2300;DHT22;1158;48.750;9.078;2024-03-02T15:36:09;17.40;76.50
2300;DHT22;1158;48.750;9.078;2024-03-02T15:38:36;17.30;74.60
2300;DHT22;1158;48.750;9.078;2024-03-02T15:41:04;16.80;74.40
2300;DHT22;1158;48.750;9.078;2024-03-02T15:43:30;16.30;75.90
2300;DHT22;1158;48.750;9.078;2024-03-02T15:45:58;16.10;75.70
2300;DHT22;1158;48.750;9.078;2024-03-02T15:48:26;15.70;75.40
2300;DHT22;1158;48.750;9.078;2024-03-02T15:50:53;15.40;76.10
2300;DHT22;1158;48.750;9.078;2024-03-02T15:53:21;15.20;76.80
2300;DHT22;1158;48.750;9.078;2024-03-02T15:55:47;15.00;76.40
2300;DHT22;1158;48.750;9.078;2024-03-02T15:58:14;14.80;76.20
2300;DHT22;1158;48.750;9.078;2024-03-02T16:00:41;14.70;77.40
2300;DHT22;1158;48.750;9.078;2024-03-02T16:03:07;14.60;78.20
2300;DHT22;1158;48.750;9.078;2024-03-02T16:05:35;14.50;77.40
2300;DHT22;1158;48.750;9.078;2024-03-02T16:08:01;14.40;78.40
2300;DHT22;1158;48.750;9.078;2024-03-02T16:10:28;14.30;78.30
2300;DHT22;1158;48.750;9.078;2024-03-02T16:12:55;14.10;79.10